createdAt,value
2022-09-28T00:00:41.287Z,6.10
2022-09-28T00:01:44.643Z,6.00
2022-09-28T00:02:46.970Z,6.25
2022-09-28T00:03:51.985Z,6.35
2022-09-28T00:04:54.144Z,6.70
2022-09-28T00:06:02.689Z,6.55
2022-09-28T00:07:04.719Z,5.82
2022-09-28T00:08:07.785Z,6.15
2022-09-28T00:09:11.237Z,6.47
2022-09-28T00:10:14.343Z,6.68
2022-09-28T00:11:18.866Z,6.43
2022-09-28T00:12:23.866Z,6.18
2022-09-28T00:13:25.925Z,6.28
2022-09-28T00:14:29.037Z,6.18
2022-09-28T00:15:31.394Z,6.15
2022-09-28T00:16:37.107Z,6.40
2022-09-28T00:17:39.238Z,6.95
2022-09-28T00:18:42.888Z,6.70
2022-09-28T00:19:46.036Z,6.30
2022-09-28T00:20:49.091Z,6.93
2022-09-28T00:21:51.229Z,6.57
2022-09-28T00:22:54.268Z,6.90
2022-09-28T00:24:13.414Z,7.07
2022-09-28T00:25:18.043Z,7.03
2022-09-28T00:26:20.102Z,6.75
2022-09-28T00:27:23.292Z,6.47
2022-09-28T00:28:25.357Z,6.57
2022-09-28T00:29:31.616Z,6.68
2022-09-28T00:30:33.692Z,6.93
2022-09-28T00:31:37.025Z,7.45
2022-09-28T00:32:39.166Z,6.80
2022-09-28T00:33:42.224Z,7.30
2022-09-28T00:34:46.817Z,7.40
2022-09-28T00:35:55.399Z,7.20
2022-09-28T00:36:58.800Z,7.30
2022-09-28T00:38:02.348Z,7.13
2022-09-28T00:39:07.683Z,8.02
2022-09-28T00:40:10.059Z,7.97
2022-09-28T00:41:15.561Z,7.78
2022-09-28T00:42:19.415Z,7.63
2022-09-28T00:43:23.690Z,7.78
2022-09-28T00:44:48.692Z,8.00
2022-09-28T00:45:56.865Z,8.00
2022-09-28T00:47:05.036Z,7.38
2022-09-28T00:48:07.883Z,7.47
2022-09-28T00:49:17.469Z,7.30
2022-09-28T00:50:24.893Z,8.30
2022-09-28T00:51:28.326Z,8.25
2022-09-28T00:52:34.717Z,7.68
2022-09-28T00:53:40.175Z,8.20
2022-09-28T00:54:46.228Z,8.57
2022-09-28T00:55:51.678Z,8.35
2022-09-28T00:56:56.310Z,8.27
2022-09-28T00:58:03.735Z,7.63
2022-09-28T00:59:08.930Z,8.40
2022-09-28T01:00:13.758Z,7.72
2022-09-28T01:01:16.597Z,8.93
2022-09-28T01:02:21.096Z,7.63
2022-09-28T01:03:23.892Z,8.15
2022-09-28T01:04:29.955Z,8.32
2022-09-28T01:05:34.374Z,8.30
2022-09-28T01:06:40.151Z,8.63
2022-09-28T01:07:44.419Z,7.50
2022-09-28T01:08:50.682Z,8.32
2022-09-28T01:09:54.828Z,8.13
2022-09-28T01:10:59.227Z,8.43
2022-09-28T01:12:04.292Z,8.57
2022-09-28T01:13:07.686Z,7.78
2022-09-28T01:14:13.843Z,8.80
2022-09-28T01:15:17.167Z,8.55
2022-09-28T01:16:28.773Z,8.55
2022-09-28T01:17:48.895Z,8.20
2022-09-28T01:19:00.488Z,9.07
2022-09-28T01:20:45.947Z,8.05
2022-09-28T01:21:52.236Z,7.68
2022-09-28T01:23:26.106Z,8.00
2022-09-28T01:24:43.175Z,7.82
2022-09-28T01:25:53.081Z,7.95
2022-09-28T01:27:06.396Z,8.05
2022-09-28T01:28:13.107Z,7.95
2022-09-28T01:29:23.670Z,8.15
2022-09-28T01:30:25.997Z,7.95
2022-09-28T01:31:33.985Z,8.40
2022-09-28T01:32:44.578Z,8.05
2022-09-28T01:33:52.315Z,8.65
2022-09-28T01:35:01.508Z,8.35
2022-09-28T01:36:10.459Z,8.23
2022-09-28T01:37:19.577Z,7.85
2022-09-28T01:38:26.658Z,8.07
2022-09-28T01:39:33.493Z,8.80
2022-09-28T01:40:38.709Z,8.77
2022-09-28T01:41:43.908Z,8.52
2022-09-28T01:42:52.127Z,8.77
2022-09-28T01:43:57.505Z,9.82
2022-09-28T01:45:06.723Z,8.65
2022-09-28T01:47:21.020Z,8.82
2022-09-28T01:48:29.236Z,8.70
2022-09-28T01:49:36.917Z,9.02
2022-09-28T01:50:43.675Z,9.10
2022-09-28T01:51:51.808Z,10.10
2022-09-28T01:53:01.598Z,9.57
2022-09-28T01:54:11.316Z,9.50
2022-09-28T01:55:22.297Z,9.57
2022-09-28T01:56:29.919Z,10.07
2022-09-28T01:57:39.517Z,10.50
2022-09-28T01:58:47.707Z,10.35
2022-09-28T01:59:57.278Z,10.27
2022-09-28T02:01:04.774Z,10.25
2022-09-28T02:02:11.347Z,10.60
2022-09-28T02:03:18.807Z,10.35
2022-09-28T02:04:32.739Z,10.38
2022-09-28T02:05:38.688Z,10.52
2022-09-28T02:06:46.231Z,10.90
2022-09-28T02:07:56.254Z,10.40
2022-09-28T02:09:02.981Z,10.68
2022-09-28T02:10:19.646Z,10.48
2022-09-28T02:11:22.968Z,11.35
2022-09-28T02:12:33.677Z,10.93
2022-09-28T02:13:40.685Z,10.40
2022-09-28T02:14:49.154Z,9.93
2022-09-28T02:15:53.757Z,10.50
2022-09-28T02:16:59.066Z,9.93
2022-09-28T02:18:05.086Z,10.50
2022-09-28T02:19:11.397Z,11.10
2022-09-28T02:20:14.108Z,10.43
2022-09-28T02:21:24.091Z,10.80
2022-09-28T02:22:33.718Z,10.68
2022-09-28T02:23:40.558Z,10.32
2022-09-28T02:24:51.884Z,10.07
2022-09-28T02:26:03.160Z,10.10
2022-09-28T02:27:13.300Z,10.23
2022-09-28T02:28:17.635Z,9.70
2022-09-28T02:29:19.716Z,10.05
2022-09-28T02:30:24.285Z,10.45
2022-09-28T02:31:26.976Z,10.38
2022-09-28T02:32:32.952Z,10.52
2022-09-28T02:33:38.794Z,10.20
2022-09-28T02:34:42.420Z,10.18
2022-09-28T02:35:44.713Z,10.10
2022-09-28T02:36:48.267Z,10.18
2022-09-28T02:37:50.931Z,10.57
2022-09-28T02:38:55.121Z,10.13
2022-09-28T02:39:57.167Z,9.82
2022-09-28T02:41:07.063Z,9.95
2022-09-28T02:42:20.422Z,9.82
2022-09-28T02:43:27.985Z,9.30
2022-09-28T02:44:43.584Z,9.85
2022-09-28T02:45:57.729Z,10.10
2022-09-28T02:47:16.410Z,9.65
2022-09-28T02:48:43.198Z,9.50
2022-09-28T02:49:55.316Z,9.25
2022-09-28T02:51:06.302Z,8.82
2022-09-28T02:52:46.738Z,9.43
2022-09-28T02:54:28.289Z,9.05
2022-09-28T02:55:43.707Z,9.13
2022-09-28T02:57:01.355Z,9.32
2022-09-28T02:58:20.558Z,9.73
2022-09-28T02:59:37.492Z,9.30
2022-09-28T03:00:46.355Z,8.95
2022-09-28T03:02:00.990Z,9.32
2022-09-28T03:03:13.951Z,9.32
2022-09-28T03:04:27.988Z,8.90
2022-09-28T03:05:36.909Z,9.32
2022-09-28T03:06:45.102Z,9.38
2022-09-28T03:07:56.847Z,9.40
2022-09-28T03:09:07.499Z,9.38
2022-09-28T03:10:17.712Z,9.80
2022-09-28T03:11:25.506Z,9.80
2022-09-28T03:12:30.047Z,9.55
2022-09-28T03:13:34.527Z,9.40
2022-09-28T03:14:36.768Z,9.50
2022-09-28T03:15:40.441Z,9.35
2022-09-28T03:16:43.616Z,9.55
2022-09-28T03:17:48.749Z,9.57
2022-09-28T03:18:50.912Z,9.52
2022-09-28T03:19:54.407Z,9.45
2022-09-28T03:20:56.803Z,9.57
2022-09-28T03:22:00.220Z,9.65
2022-09-28T03:24:25.499Z,10.07
2022-09-28T03:25:27.757Z,9.95
2022-09-28T03:26:30.885Z,9.70
2022-09-28T03:27:32.980Z,9.63
2022-09-28T03:28:36.310Z,9.98
2022-09-28T03:29:40.764Z,9.38
2022-09-28T03:30:44.160Z,9.95
2022-09-28T03:31:47.910Z,9.77
2022-09-28T03:32:59.577Z,10.45
2022-09-28T03:34:04.425Z,10.00
2022-09-28T03:35:09.755Z,9.52
2022-09-28T03:36:14.713Z,10.20
2022-09-28T03:37:16.933Z,10.27
2022-09-28T03:38:20.642Z,9.73
2022-09-28T03:39:23.095Z,10.25
2022-09-28T03:40:26.540Z,10.13
2022-09-28T03:41:29.642Z,10.25
2022-09-28T03:42:31.734Z,10.10
2022-09-28T03:43:34.770Z,10.02
2022-09-28T03:44:38.118Z,10.38
2022-09-28T03:45:41.780Z,10.15
2022-09-28T03:46:43.880Z,10.32
2022-09-28T03:47:47.636Z,10.93
2022-09-28T03:48:51.245Z,10.25
2022-09-28T03:49:54.288Z,10.70
2022-09-28T03:50:58.017Z,10.35
2022-09-28T03:52:01.102Z,10.40
2022-09-28T03:53:04.283Z,10.18
2022-09-28T03:54:07.730Z,10.82
2022-09-28T03:55:10.960Z,11.13
2022-09-28T03:56:17.446Z,10.68
2022-09-28T03:57:19.666Z,11.43
2022-09-28T03:58:23.709Z,10.38
2022-09-28T03:59:26.336Z,11.05
2022-09-28T04:00:29.643Z,11.48
2022-09-28T04:01:32.552Z,12.60
2022-09-28T04:02:35.808Z,12.90
2022-09-28T04:03:38.442Z,12.45
2022-09-28T04:04:43.302Z,13.40
2022-09-28T04:05:49.366Z,13.43
2022-09-28T04:06:53.681Z,12.35
2022-09-28T04:07:56.363Z,14.23
2022-09-28T04:08:59.627Z,15.85
2022-09-28T04:10:01.900Z,14.88
2022-09-28T04:11:04.933Z,15.82
2022-09-28T04:12:07.063Z,15.80
2022-09-28T04:13:11.052Z,16.38
2022-09-28T04:14:14.164Z,16.33
2022-09-28T04:15:18.349Z,15.40
2022-09-28T04:16:20.474Z,16.38
2022-09-28T04:17:39.978Z,15.95
2022-09-28T04:18:48.400Z,16.88
2022-09-28T04:20:25.612Z,15.10
2022-09-28T04:21:54.570Z,14.88
2022-09-28T04:22:58.392Z,16.00
2022-09-28T04:24:01.564Z,17.15
2022-09-28T04:25:04.146Z,16.98
2022-09-28T04:26:09.225Z,17.63
2022-09-28T04:27:29.726Z,16.67
2022-09-28T04:28:50.238Z,16.20
2022-09-28T04:29:52.293Z,16.92
2022-09-28T04:30:55.610Z,16.40
2022-09-28T04:31:57.739Z,16.92
2022-09-28T04:34:12.665Z,15.88
2022-09-28T04:35:16.388Z,16.67
2022-09-28T04:36:19.937Z,17.77
2022-09-28T04:37:23.426Z,16.50
2022-09-28T04:38:48.378Z,16.92
2022-09-28T04:39:49.061Z,17.73
2022-09-28T04:40:54.634Z,17.02
2022-09-28T04:41:57.778Z,17.15
2022-09-28T04:42:59.915Z,18.30
2022-09-28T04:44:03.758Z,16.77
2022-09-28T04:45:07.261Z,17.60
2022-09-28T04:46:13.894Z,16.13
2022-09-28T04:47:22.625Z,16.83
2022-09-28T04:48:52.137Z,17.17
2022-09-28T04:50:12.472Z,16.35
2022-09-28T04:51:37.003Z,16.20
2022-09-28T04:52:39.127Z,16.35
2022-09-28T04:53:43.017Z,16.45
2022-09-28T04:54:45.221Z,17.20
2022-09-28T04:55:56.670Z,17.92
2022-09-28T04:56:59.169Z,16.23
2022-09-28T04:58:04.751Z,16.83
2022-09-28T04:59:08.877Z,16.75
2022-09-28T05:00:13.505Z,16.23
2022-09-28T05:01:23.747Z,16.55
2022-09-28T05:02:29.914Z,16.38
2022-09-28T05:03:51.817Z,16.45
2022-09-28T05:05:08.116Z,17.17
2022-09-28T05:06:15.664Z,16.23
2022-09-28T05:07:24.948Z,15.38
2022-09-28T05:08:27.286Z,16.08
2022-09-28T05:09:32.255Z,15.70
2022-09-28T05:10:40.436Z,15.55
2022-09-28T05:11:43.596Z,16.00
2022-09-28T05:12:51.618Z,16.17
2022-09-28T05:13:55.099Z,16.05
2022-09-28T05:14:57.162Z,15.95
2022-09-28T05:16:04.993Z,16.23
2022-09-28T05:17:12.563Z,15.45
2022-09-28T05:18:33.761Z,15.82
2022-09-28T05:19:43.605Z,15.80
2022-09-28T05:20:46.380Z,15.18
2022-09-28T05:21:49.727Z,14.65
2022-09-28T05:22:53.222Z,15.75
2022-09-28T05:23:58.288Z,15.23
2022-09-28T05:25:00.847Z,15.38
2022-09-28T05:26:08.328Z,16.27
2022-09-28T05:27:12.236Z,15.75
2022-09-28T05:28:14.425Z,15.55
2022-09-28T05:29:37.432Z,15.63
2022-09-28T05:31:02.780Z,15.27
2022-09-28T05:32:24.149Z,14.73
2022-09-28T05:33:45.797Z,15.00
2022-09-28T05:34:49.501Z,14.98
2022-09-28T05:36:01.658Z,14.77
2022-09-28T05:37:04.635Z,15.82
2022-09-28T05:38:09.112Z,15.95
2022-09-28T05:39:11.240Z,15.93
2022-09-28T05:40:15.087Z,15.82
2022-09-28T05:41:17.388Z,16.48
2022-09-28T05:42:20.428Z,16.40
2022-09-28T05:43:23.815Z,15.60
2022-09-28T05:44:26.053Z,15.23
2022-09-28T05:45:30.667Z,16.30
2022-09-28T05:46:32.843Z,14.82
2022-09-28T05:47:39.258Z,15.32
2022-09-28T05:49:10.811Z,15.65
2022-09-28T05:50:15.929Z,15.45
2022-09-28T05:51:19.257Z,15.45
2022-09-28T05:52:22.079Z,15.75
2022-09-28T05:53:26.633Z,15.55
2022-09-28T05:54:29.673Z,15.52
2022-09-28T05:55:31.781Z,15.68
2022-09-28T05:56:34.870Z,15.93
2022-09-28T05:57:39.620Z,15.65
2022-09-28T05:58:43.609Z,15.25
2022-09-28T05:59:46.697Z,15.77
2022-09-28T06:00:55.240Z,15.43
2022-09-28T06:01:57.437Z,15.52
2022-09-28T06:03:04.395Z,15.00
2022-09-28T06:04:10.131Z,14.48
2022-09-28T06:05:13.544Z,14.60
2022-09-28T06:06:16.556Z,15.07
2022-09-28T06:07:20.876Z,14.88
2022-09-28T06:08:23.973Z,13.30
2022-09-28T06:09:35.771Z,14.00
2022-09-28T06:10:48.740Z,14.18
2022-09-28T06:11:51.410Z,13.48
2022-09-28T06:13:00.420Z,14.05
2022-09-28T06:14:04.052Z,14.45
2022-09-28T06:15:08.207Z,14.82
2022-09-28T06:16:16.129Z,15.43
2022-09-28T06:17:18.335Z,15.25
2022-09-28T06:18:26.097Z,15.07
2022-09-28T06:19:59.296Z,14.90
2022-09-28T06:21:10.932Z,14.35
2022-09-28T06:22:17.612Z,14.50
2022-09-28T06:23:33.522Z,15.13
2022-09-28T06:24:36.954Z,14.73
2022-09-28T06:25:40.555Z,15.40
2022-09-28T06:26:42.596Z,15.52
2022-09-28T06:27:54.961Z,15.30
2022-09-28T06:29:00.527Z,15.43
2022-09-28T06:30:02.622Z,14.65
2022-09-28T06:31:06.854Z,15.43
2022-09-28T06:32:16.263Z,15.45
2022-09-28T06:33:22.730Z,15.15
2022-09-28T06:34:24.878Z,14.70
2022-09-28T06:35:30.380Z,15.20
2022-09-28T06:36:32.489Z,15.23
2022-09-28T06:37:35.744Z,15.55
2022-09-28T06:38:38.342Z,15.75
2022-09-28T06:39:43.006Z,15.27
2022-09-28T06:40:46.179Z,15.50
2022-09-28T06:41:48.262Z,15.20
2022-09-28T06:42:58.250Z,15.18
2022-09-28T06:44:19.636Z,16.17
2022-09-28T06:45:51.522Z,15.55
2022-09-28T06:47:13.239Z,15.23
2022-09-28T06:48:35.186Z,15.50
2022-09-28T06:49:37.206Z,15.02
2022-09-28T06:51:03.293Z,14.18
2022-09-28T06:52:09.966Z,14.98
2022-09-28T06:53:33.541Z,15.15
2022-09-28T06:54:52.070Z,15.45
2022-09-28T06:56:01.335Z,14.88
2022-09-28T06:57:04.147Z,15.35
2022-09-28T06:58:10.611Z,15.52
2022-09-28T06:59:12.631Z,14.73
2022-09-28T07:00:16.485Z,16.30
2022-09-28T07:01:22.116Z,16.20
2022-09-28T07:02:37.865Z,15.60
2022-09-28T07:03:46.674Z,15.98
2022-09-28T07:05:01.452Z,14.75
2022-09-28T07:06:28.841Z,15.70
2022-09-28T07:08:00.309Z,15.43
2022-09-28T07:09:32.193Z,15.02
2022-09-28T07:10:56.295Z,15.25
2022-09-28T07:12:20.696Z,15.70
2022-09-28T07:13:49.594Z,16.77
2022-09-28T07:14:57.344Z,17.67
2022-09-28T07:16:02.148Z,19.42
2022-09-28T07:17:13.838Z,19.20
2022-09-28T07:18:18.722Z,18.58
2022-09-28T07:19:20.906Z,19.98
2022-09-28T07:20:25.097Z,19.90
2022-09-28T07:21:30.518Z,21.08
2022-09-28T07:22:43.139Z,21.30
2022-09-28T07:23:53.922Z,20.75
2022-09-28T07:24:59.943Z,21.38
2022-09-28T07:26:36.373Z,19.88
2022-09-28T07:27:47.162Z,20.67
2022-09-28T07:29:04.904Z,18.88
2022-09-28T07:30:13.246Z,17.73
2022-09-28T07:31:33.694Z,18.38
2022-09-28T07:32:56.012Z,20.17
2022-09-28T07:34:06.033Z,19.70
2022-09-28T07:35:24.142Z,20.73
2022-09-28T07:36:29.872Z,21.30
2022-09-28T07:37:34.145Z,21.60
2022-09-28T07:38:36.212Z,21.63
2022-09-28T07:39:53.536Z,21.15
2022-09-28T07:41:13.929Z,20.92
2022-09-28T07:42:23.658Z,23.15
2022-09-28T07:43:26.755Z,22.30
2022-09-28T07:44:29.857Z,21.67
2022-09-28T07:45:36.663Z,20.95
2022-09-28T07:46:41.165Z,20.20
2022-09-28T07:47:50.214Z,19.73
2022-09-28T07:49:16.850Z,18.45
2022-09-28T07:50:51.770Z,17.40
2022-09-28T07:52:09.116Z,18.17
2022-09-28T07:53:16.660Z,17.75
2022-09-28T07:54:38.058Z,17.73
2022-09-28T07:56:10.419Z,18.27
2022-09-28T07:57:19.100Z,18.10
2022-09-28T07:58:39.523Z,18.85
2022-09-28T08:00:15.757Z,19.83
2022-09-28T08:01:21.864Z,19.55
2022-09-28T08:02:25.860Z,19.08
2022-09-28T08:03:29.741Z,19.77
2022-09-28T08:04:32.805Z,19.08
2022-09-28T08:05:35.884Z,18.75
2022-09-28T08:06:40.518Z,19.40
2022-09-28T08:07:45.558Z,20.13
2022-09-28T08:08:48.037Z,19.52
2022-09-28T08:09:53.234Z,20.55
2022-09-28T08:11:08.589Z,21.20
2022-09-28T08:12:22.173Z,19.58
2022-09-28T08:13:38.882Z,20.10
2022-09-28T08:15:15.533Z,19.38
2022-09-28T08:16:48.512Z,19.13
2022-09-28T08:18:12.423Z,18.92
2022-09-28T08:19:14.665Z,19.50
2022-09-28T08:20:35.700Z,19.33
2022-09-28T08:21:47.553Z,19.08
2022-09-28T08:22:50.013Z,18.08
2022-09-28T08:23:53.986Z,18.52
2022-09-28T08:24:56.042Z,17.60
2022-09-28T08:25:59.121Z,18.45
2022-09-28T08:27:02.369Z,17.75
2022-09-28T08:28:07.297Z,17.70
2022-09-28T08:29:16.970Z,17.55
2022-09-28T08:30:31.687Z,17.63
2022-09-28T08:31:58.341Z,16.88
2022-09-28T08:33:08.981Z,16.58
2022-09-28T08:34:30.516Z,15.68
2022-09-28T08:35:59.859Z,16.15
2022-09-28T08:37:14.859Z,15.48
2022-09-28T08:38:36.242Z,15.60
2022-09-28T08:39:57.691Z,15.30
2022-09-28T08:41:41.326Z,15.35
2022-09-28T08:42:57.682Z,15.52
2022-09-28T08:44:26.290Z,15.20
2022-09-28T08:45:41.429Z,14.77
2022-09-28T08:46:59.856Z,13.90
2022-09-28T08:48:51.833Z,12.60
2022-09-28T08:50:31.436Z,11.32
2022-09-28T08:52:00.535Z,11.52
2022-09-28T08:53:42.451Z,12.43
2022-09-28T08:54:59.510Z,12.85
2022-09-28T08:56:27.751Z,12.27
2022-09-28T08:57:34.971Z,12.75
2022-09-28T08:58:43.971Z,12.60
2022-09-28T08:59:52.470Z,12.68
2022-09-28T09:01:02.383Z,11.98
2022-09-28T09:02:14.479Z,11.93
2022-09-28T09:03:23.774Z,12.02
2022-09-28T09:04:43.489Z,11.25
2022-09-28T09:06:18.447Z,11.32
2022-09-28T09:07:48.610Z,10.18
2022-09-28T09:09:01.161Z,9.63
2022-09-28T09:10:14.811Z,10.55
2022-09-28T09:11:34.174Z,9.70
2022-09-28T09:12:46.877Z,9.27
2022-09-28T09:14:14.518Z,9.88
2022-09-28T09:15:32.281Z,9.57
2022-09-28T09:16:47.479Z,9.45
2022-09-28T09:18:29.737Z,9.18
2022-09-28T09:19:55.365Z,9.50
2022-09-28T09:21:19.725Z,9.85
2022-09-28T09:22:39.058Z,9.82
2022-09-28T09:23:55.009Z,9.93
2022-09-28T09:25:05.284Z,9.98
2022-09-28T09:26:22.003Z,9.35
2022-09-28T09:27:48.581Z,9.57
2022-09-28T09:29:05.708Z,9.98
2022-09-28T09:30:20.470Z,9.88
2022-09-28T09:31:42.803Z,9.75
2022-09-28T09:33:27.321Z,8.73
2022-09-28T09:35:33.354Z,9.38
2022-09-28T09:37:08.047Z,9.90
2022-09-28T09:38:42.844Z,9.85
2022-09-28T09:40:24.899Z,9.30
2022-09-28T09:42:02.378Z,9.50
2022-09-28T09:43:59.002Z,8.60
2022-09-28T09:45:38.338Z,9.57
2022-09-28T09:47:08.237Z,9.90
2022-09-28T09:48:34.313Z,9.18
2022-09-28T09:49:42.323Z,9.15
2022-09-28T09:50:48.906Z,9.10
2022-09-28T09:51:57.952Z,8.43
2022-09-28T09:53:07.408Z,9.35
2022-09-28T09:54:17.799Z,8.55
2022-09-28T09:55:29.882Z,8.38
2022-09-28T09:56:55.054Z,8.15
2022-09-28T09:58:25.306Z,7.22
2022-09-28T09:59:41.072Z,7.38
2022-09-28T10:01:02.913Z,7.93
2022-09-28T10:02:29.727Z,8.13
2022-09-28T10:03:53.868Z,7.57
2022-09-28T10:05:01.851Z,7.10
2022-09-28T10:06:15.735Z,6.45
2022-09-28T10:07:25.767Z,6.88
2022-09-28T10:08:30.385Z,6.30
2022-09-28T10:09:39.455Z,7.00
2022-09-28T10:11:03.870Z,6.40
2022-09-28T10:12:11.085Z,5.85
2022-09-28T10:13:14.086Z,5.90
2022-09-28T10:14:21.458Z,6.35
2022-09-28T10:15:32.773Z,6.57
2022-09-28T10:16:49.208Z,5.38
2022-09-28T10:18:07.686Z,4.97
2022-09-28T10:19:44.461Z,5.35
2022-09-28T10:21:06.497Z,5.70
2022-09-28T10:22:38.799Z,5.57
2022-09-28T10:23:49.888Z,5.07
2022-09-28T10:24:56.897Z,5.05
2022-09-28T10:26:05.104Z,5.07
2022-09-28T10:27:13.830Z,5.72
2022-09-28T10:28:23.860Z,5.20
2022-09-28T10:29:28.433Z,4.57
2022-09-28T10:30:35.872Z,4.53
2022-09-28T10:31:40.783Z,5.22
2022-09-28T10:32:55.497Z,5.22
2022-09-28T10:33:59.408Z,5.10
2022-09-28T10:35:21.643Z,4.60
2022-09-28T10:36:29.090Z,4.72
2022-09-28T10:37:32.492Z,4.20
2022-09-28T10:38:50.047Z,4.03
2022-09-28T10:40:06.907Z,3.83
2022-09-28T10:41:12.048Z,3.63
2022-09-28T10:42:24.405Z,3.30
2022-09-28T10:43:30.350Z,3.75
2022-09-28T10:44:48.604Z,4.10
2022-09-28T10:46:13.207Z,3.67
2022-09-28T10:47:21.033Z,4.05
2022-09-28T10:48:24.454Z,3.88
2022-09-28T10:49:33.390Z,4.18
2022-09-28T10:50:35.594Z,4.60
2022-09-28T10:51:46.660Z,4.82
2022-09-28T10:52:55.059Z,5.60
2022-09-28T10:54:25.572Z,4.80
2022-09-28T10:55:32.427Z,5.00
2022-09-28T10:56:38.555Z,4.45
2022-09-28T10:57:44.817Z,4.18
2022-09-28T10:58:47.080Z,4.07
2022-09-28T10:59:57.433Z,3.45
2022-09-28T11:01:27.316Z,3.05
2022-09-28T11:02:35.737Z,3.22
2022-09-28T11:03:53.812Z,2.75
2022-09-28T11:05:00.331Z,2.47
2022-09-28T11:06:09.751Z,2.40
2022-09-28T11:07:18.170Z,2.10
2022-09-28T11:08:25.691Z,2.40
2022-09-28T11:09:31.586Z,2.95
2022-09-28T11:10:39.400Z,3.17
2022-09-28T11:11:49.313Z,2.65
2022-09-28T11:12:52.647Z,3.13
2022-09-28T11:14:01.174Z,3.55
2022-09-28T11:15:08.037Z,3.13
2022-09-28T11:16:21.276Z,2.45
2022-09-28T11:17:30.055Z,1.75
2022-09-28T11:18:34.451Z,1.90
2022-09-28T11:19:42.193Z,1.92
2022-09-28T11:20:45.660Z,2.13
2022-09-28T11:21:48.668Z,2.40
2022-09-28T11:22:53.616Z,2.85
2022-09-28T11:24:01.315Z,2.45
2022-09-28T11:25:21.651Z,2.67
2022-09-28T11:26:24.398Z,2.45
2022-09-28T11:27:28.189Z,2.60
2022-09-28T11:28:33.289Z,2.35
2022-09-28T11:29:42.758Z,2.47
2022-09-28T11:31:08.746Z,2.67
2022-09-28T11:32:40.085Z,3.05
2022-09-28T11:34:15.905Z,3.88
2022-09-28T11:35:50.076Z,2.78
2022-09-28T11:37:31.299Z,2.45
2022-09-28T11:40:22.203Z,2.65
2022-09-28T11:41:48.171Z,2.45
2022-09-28T11:44:33.356Z,2.17
2022-09-28T11:45:55.746Z,2.67
2022-09-28T11:47:05.021Z,2.58
2022-09-28T11:48:10.507Z,2.53
2022-09-28T11:49:27.817Z,3.05
2022-09-28T11:50:42.843Z,2.95
2022-09-28T11:51:51.089Z,3.00
2022-09-28T11:52:59.375Z,3.00
2022-09-28T11:54:14.403Z,3.33
2022-09-28T11:55:25.513Z,3.33
2022-09-28T11:56:36.025Z,3.15
2022-09-28T11:57:42.156Z,2.72
2022-09-28T11:58:50.140Z,3.30
2022-09-28T11:59:59.181Z,3.30
2022-09-28T12:01:05.857Z,3.30
2022-09-28T12:02:33.302Z,3.13
2022-09-28T12:03:46.451Z,3.30
2022-09-28T12:04:57.027Z,3.17
2022-09-28T12:06:05.256Z,2.65
2022-09-28T12:07:14.006Z,2.30
2022-09-28T12:08:25.297Z,2.40
2022-09-28T12:09:43.399Z,2.00
2022-09-28T12:10:58.239Z,2.55
2022-09-28T12:12:25.657Z,2.58
2022-09-28T12:13:36.423Z,2.75
2022-09-28T12:14:40.298Z,2.50
2022-09-28T12:16:17.131Z,2.65
2022-09-28T12:17:22.768Z,2.35
2022-09-28T12:18:29.425Z,2.00
2022-09-28T12:19:39.171Z,1.98
2022-09-28T12:20:47.628Z,1.90
2022-09-28T12:21:52.047Z,2.00
2022-09-28T12:23:04.973Z,1.83
2022-09-28T12:24:16.228Z,2.00
2022-09-28T12:25:24.103Z,2.05
2022-09-28T12:26:37.247Z,2.13
2022-09-28T12:27:46.230Z,2.10
2022-09-28T12:28:52.936Z,1.63
2022-09-28T12:30:03.276Z,2.05
2022-09-28T12:31:16.127Z,1.80
2022-09-28T12:32:30.284Z,1.65
2022-09-28T12:33:32.799Z,1.35
2022-09-28T12:34:35.830Z,1.30
2022-09-28T12:35:57.798Z,1.58
2022-09-28T12:37:22.442Z,1.50
2022-09-28T12:38:38.833Z,1.40
2022-09-28T12:39:57.865Z,1.42
2022-09-28T12:41:12.666Z,1.50
2022-09-28T12:42:30.091Z,1.40
2022-09-28T12:43:46.514Z,1.73
2022-09-28T12:45:04.676Z,1.30
2022-09-28T12:46:45.971Z,2.10
2022-09-28T12:48:11.467Z,1.50
2022-09-28T12:51:10.296Z,1.40
2022-09-28T12:54:01.965Z,1.30
2022-09-28T12:55:20.811Z,1.38
2022-09-28T12:56:32.388Z,1.48
2022-09-28T12:57:47.944Z,1.48
2022-09-28T12:59:03.337Z,1.33
2022-09-28T13:00:10.540Z,1.20
2022-09-28T13:01:40.137Z,1.50
2022-09-28T13:02:59.768Z,1.50
2022-09-28T13:04:31.425Z,1.30
2022-09-28T13:06:05.502Z,1.60
2022-09-28T13:07:15.511Z,1.70
2022-09-28T13:08:30.368Z,1.90
2022-09-28T13:09:48.721Z,1.70
2022-09-28T13:11:05.453Z,1.67
2022-09-28T13:12:21.350Z,1.63
2022-09-28T13:13:41.347Z,1.60
2022-09-28T13:15:18.777Z,1.92
2022-09-28T13:16:30.183Z,1.90
2022-09-28T13:17:44.315Z,1.80
2022-09-28T13:18:55.899Z,1.67
2022-09-28T13:20:03.947Z,1.80
2022-09-28T13:21:26.295Z,1.52
2022-09-28T13:22:39.982Z,1.85
2022-09-28T13:23:48.425Z,1.67
2022-09-28T13:24:55.659Z,1.52
2022-09-28T13:26:04.578Z,1.50
2022-09-28T13:27:13.570Z,1.70
2022-09-28T13:28:25.008Z,1.50
2022-09-28T13:29:30.206Z,1.60
2022-09-28T13:30:35.491Z,1.40
2022-09-28T13:31:46.682Z,1.55
2022-09-28T13:32:50.431Z,1.52
2022-09-28T13:33:54.645Z,1.90
2022-09-28T13:34:57.668Z,1.50
2022-09-28T13:36:05.626Z,1.90
2022-09-28T13:37:19.911Z,1.98
2022-09-28T13:38:49.556Z,1.75
2022-09-28T13:39:56.468Z,1.40
2022-09-28T13:41:33.451Z,1.55
2022-09-28T13:42:59.766Z,1.80
2022-09-28T13:44:28.569Z,1.70
2022-09-28T13:45:40.947Z,1.98
2022-09-28T13:46:55.097Z,1.83
2022-09-28T13:48:12.244Z,1.90
2022-09-28T13:49:22.334Z,1.88
2022-09-28T13:50:35.424Z,2.25
2022-09-28T13:51:55.367Z,2.20
2022-09-28T13:53:05.719Z,2.30
2022-09-28T13:54:20.932Z,2.20
2022-09-28T13:55:33.027Z,2.33
2022-09-28T13:56:44.966Z,2.25
2022-09-28T13:57:52.632Z,2.53
2022-09-28T13:59:02.642Z,2.28
2022-09-28T14:00:16.680Z,2.40
2022-09-28T14:01:24.388Z,2.50
2022-09-28T14:02:36.542Z,2.25
2022-09-28T14:03:57.147Z,2.15
2022-09-28T14:05:03.103Z,2.90
2022-09-28T14:06:11.450Z,2.08
2022-09-28T14:07:21.328Z,1.90
2022-09-28T14:08:38.407Z,1.70
2022-09-28T14:10:03.699Z,1.80
2022-09-28T14:11:46.039Z,2.38
2022-09-28T14:12:51.516Z,2.10
2022-09-28T14:14:02.253Z,1.60
2022-09-28T14:16:21.026Z,1.25
2022-09-28T14:17:55.828Z,1.92
2022-09-28T14:19:02.715Z,1.75
2022-09-28T14:20:10.485Z,1.60
2022-09-28T14:21:54.773Z,1.48
2022-09-28T14:23:39.477Z,1.60
2022-09-28T14:25:03.457Z,1.60
2022-09-28T14:26:31.585Z,1.52
2022-09-28T14:27:58.430Z,1.63
2022-09-28T14:29:15.904Z,1.52
2022-09-28T14:30:23.338Z,1.45
2022-09-28T14:31:28.312Z,1.48
2022-09-28T14:32:37.499Z,1.67
2022-09-28T14:33:42.686Z,1.42
2022-09-28T14:34:48.792Z,1.80
2022-09-28T14:35:56.331Z,1.40
2022-09-28T14:37:17.697Z,1.60
2022-09-28T14:38:41.254Z,1.40
2022-09-28T14:40:03.882Z,1.70
2022-09-28T14:41:11.190Z,1.60
2022-09-28T14:42:19.045Z,1.65
2022-09-28T14:43:26.714Z,1.60
2022-09-28T14:45:08.756Z,1.35
2022-09-28T14:46:43.240Z,1.30
2022-09-28T14:48:05.645Z,1.23
2022-09-28T14:49:50.465Z,1.77
2022-09-28T14:50:55.761Z,1.58
2022-09-28T14:52:03.590Z,1.70
2022-09-28T14:53:20.849Z,2.17
2022-09-28T14:54:24.772Z,2.58
2022-09-28T14:55:32.849Z,2.03
2022-09-28T14:56:44.478Z,2.30
2022-09-28T14:57:54.536Z,2.63
2022-09-28T14:58:59.408Z,2.35
2022-09-28T15:00:16.256Z,2.45
2022-09-28T15:01:22.667Z,2.80
2022-09-28T15:02:28.113Z,2.28
2022-09-28T15:03:34.282Z,2.60
2022-09-28T15:04:41.274Z,2.30
2022-09-28T15:05:47.224Z,2.70
2022-09-28T15:06:52.005Z,3.05
2022-09-28T15:07:56.169Z,2.40
2022-09-28T15:08:58.313Z,2.38
2022-09-28T15:10:03.323Z,2.05
2022-09-28T15:11:07.894Z,2.25
2022-09-28T15:12:19.850Z,2.30
2022-09-28T15:13:26.660Z,2.30
2022-09-28T15:14:31.923Z,2.47
2022-09-28T15:15:39.109Z,2.53
2022-09-28T15:16:41.209Z,2.40
2022-09-28T15:17:54.005Z,2.20
2022-09-28T15:19:29.115Z,2.17
2022-09-28T15:20:35.446Z,2.10
2022-09-28T15:21:40.984Z,2.20
2022-09-28T15:22:46.645Z,2.00
2022-09-28T15:23:50.491Z,2.00
2022-09-28T15:25:00.019Z,1.92
2022-09-28T15:26:08.563Z,2.40
2022-09-28T15:27:18.902Z,2.35
2022-09-28T15:28:23.412Z,2.72
2022-09-28T15:29:31.101Z,2.28
2022-09-28T15:30:38.259Z,2.15
2022-09-28T15:31:40.391Z,2.10
2022-09-28T15:32:43.427Z,2.28
2022-09-28T15:34:04.200Z,2.47
2022-09-28T15:35:20.587Z,2.40
2022-09-28T15:36:26.388Z,2.33
2022-09-28T15:37:36.474Z,2.00
2022-09-28T15:38:42.806Z,2.30
2022-09-28T15:39:48.350Z,2.30
2022-09-28T15:40:51.887Z,2.15
2022-09-28T15:41:54.138Z,2.25
2022-09-28T15:42:59.381Z,2.25
2022-09-28T15:44:32.966Z,2.20
2022-09-28T15:45:43.483Z,2.10
2022-09-28T15:46:47.906Z,2.50
2022-09-28T15:47:51.098Z,2.30